sensor_id;sensor_type;location;lat;lon;timestamp;P1;durP1;ratioP1;P2;durP2;ratioP2
58250;SDS011;51449;51.676;5.812;2022-11-25T00:00:42;17.67;;;3.83;;
58250;SDS011;51449;51.676;5.812;2022-11-25T00:03:04;14.47;;;3.63;;
58250;SDS011;51449;51.676;5.812;2022-11-25T00:05:26;11.70;;;3.10;;
58250;SDS011;51449;51.676;5.812;2022-11-25T00:07:48;13.43;;;3.30;;
58250;SDS011;51449;51.676;5.812;2022-11-25T00:10:10;13.00;;;3.80;;
58250;SDS011;51449;51.676;5.812;2022-11-25T00:12:32;12.87;;;3.47;;
58250;SDS011;51449;51.676;5.812;2022-11-25T00:14:54;13.63;;;3.40;;
58250;SDS011;51449;51.676;5.812;2022-11-25T00:17:16;10.40;;;3.70;;
58250;SDS011;51449;51.676;5.812;2022-11-25T00:19:38;12.90;;;3.83;;
58250;SDS011;51449;51.676;5.812;2022-11-25T00:22:00;14.13;;;3.50;;
58250;SDS011;51449;51.676;5.812;2022-11-25T00:24:22;13.70;;;3.30;;
58250;SDS011;51449;51.676;5.812;2022-11-25T00:26:43;14.63;;;3.80;;
58250;SDS011;51449;51.676;5.812;2022-11-25T00:29:06;13.50;;;3.60;;
58250;SDS011;51449;51.676;5.812;2022-11-25T00:31:32;15.87;;;3.60;;
58250;SDS011;51449;51.676;5.812;2022-11-25T00:33:58;12.67;;;3.20;;
58250;SDS011;51449;51.676;5.812;2022-11-25T00:38:44;13.43;;;2.92;;
58250;SDS011;51449;51.676;5.812;2022-11-25T00:41:06;14.60;;;3.30;;
58250;SDS011;51449;51.676;5.812;2022-11-25T00:43:47;14.80;;;3.70;;
58250;SDS011;51449;51.676;5.812;2022-11-25T00:46:27;13.63;;;3.83;;
58250;SDS011;51449;51.676;5.812;2022-11-25T00:48:49;15.40;;;3.20;;
58250;SDS011;51449;51.676;5.812;2022-11-25T00:51:11;11.07;;;3.10;;
58250;SDS011;51449;51.676;5.812;2022-11-25T00:53:33;14.67;;;3.70;;
58250;SDS011;51449;51.676;5.812;2022-11-25T00:55:59;13.37;;;3.33;;
58250;SDS011;51449;51.676;5.812;2022-11-25T00:58:34;9.53;;;2.80;;
58250;SDS011;51449;51.676;5.812;2022-11-25T01:01:00;9.87;;;3.30;;
58250;SDS011;51449;51.676;5.812;2022-11-25T01:03:22;10.63;;;3.10;;
58250;SDS011;51449;51.676;5.812;2022-11-25T01:05:45;14.57;;;3.70;;
58250;SDS011;51449;51.676;5.812;2022-11-25T01:08:07;13.23;;;3.73;;
58250;SDS011;51449;51.676;5.812;2022-11-25T01:10:31;10.02;;;3.17;;
58250;SDS011;51449;51.676;5.812;2022-11-25T01:12:53;11.77;;;2.93;;
58250;SDS011;51449;51.676;5.812;2022-11-25T01:15:15;13.33;;;3.00;;
58250;SDS011;51449;51.676;5.812;2022-11-25T01:17:37;10.10;;;2.97;;
58250;SDS011;51449;51.676;5.812;2022-11-25T01:19:59;12.97;;;3.47;;
58250;SDS011;51449;51.676;5.812;2022-11-25T01:22:20;15.27;;;3.00;;
58250;SDS011;51449;51.676;5.812;2022-11-25T01:24:42;21.93;;;4.07;;
58250;SDS011;51449;51.676;5.812;2022-11-25T01:27:04;16.30;;;3.33;;
58250;SDS011;51449;51.676;5.812;2022-11-25T01:29:26;16.43;;;3.07;;
58250;SDS011;51449;51.676;5.812;2022-11-25T01:31:48;14.37;;;3.53;;
58250;SDS011;51449;51.676;5.812;2022-11-25T01:34:17;17.33;;;4.20;;
58250;SDS011;51449;51.676;5.812;2022-11-25T01:36:43;14.33;;;3.97;;
58250;SDS011;51449;51.676;5.812;2022-11-25T01:39:06;14.47;;;2.93;;
58250;SDS011;51449;51.676;5.812;2022-11-25T01:41:30;11.23;;;3.07;;
58250;SDS011;51449;51.676;5.812;2022-11-25T01:44:29;16.37;;;3.60;;
58250;SDS011;51449;51.676;5.812;2022-11-25T01:52:23;12.87;;;3.70;;
58250;SDS011;51449;51.676;5.812;2022-11-25T01:54:53;12.32;;;3.40;;
58250;SDS011;51449;51.676;5.812;2022-11-25T01:57:26;14.93;;;3.53;;
58250;SDS011;51449;51.676;5.812;2022-11-25T01:59:56;9.03;;;3.00;;
58250;SDS011;51449;51.676;5.812;2022-11-25T02:02:24;14.60;;;3.50;;
58250;SDS011;51449;51.676;5.812;2022-11-25T02:04:47;13.60;;;3.67;;
58250;SDS011;51449;51.676;5.812;2022-11-25T02:07:31;13.17;;;3.10;;
58250;SDS011;51449;51.676;5.812;2022-11-25T02:09:56;17.17;;;3.43;;
58250;SDS011;51449;51.676;5.812;2022-11-25T02:12:22;9.77;;;3.40;;
58250;SDS011;51449;51.676;5.812;2022-11-25T02:14:44;12.13;;;3.40;;
58250;SDS011;51449;51.676;5.812;2022-11-25T02:17:09;13.57;;;3.77;;
58250;SDS011;51449;51.676;5.812;2022-11-25T02:19:40;8.23;;;3.03;;
58250;SDS011;51449;51.676;5.812;2022-11-25T02:22:21;12.80;;;2.83;;
58250;SDS011;51449;51.676;5.812;2022-11-25T02:25:00;18.97;;;3.33;;
58250;SDS011;51449;51.676;5.812;2022-11-25T02:27:45;12.47;;;3.00;;
58250;SDS011;51449;51.676;5.812;2022-11-25T02:30:12;11.67;;;3.33;;
58250;SDS011;51449;51.676;5.812;2022-11-25T02:32:34;16.50;;;3.33;;
58250;SDS011;51449;51.676;5.812;2022-11-25T02:34:56;14.27;;;3.10;;
58250;SDS011;51449;51.676;5.812;2022-11-25T02:37:19;15.93;;;3.60;;
58250;SDS011;51449;51.676;5.812;2022-11-25T02:39:45;14.00;;;3.30;;
58250;SDS011;51449;51.676;5.812;2022-11-25T02:42:09;20.03;;;3.80;;
58250;SDS011;51449;51.676;5.812;2022-11-25T02:44:32;11.60;;;2.90;;
58250;SDS011;51449;51.676;5.812;2022-11-25T02:46:54;11.67;;;3.50;;
58250;SDS011;51449;51.676;5.812;2022-11-25T02:49:16;17.20;;;3.97;;
58250;SDS011;51449;51.676;5.812;2022-11-25T02:51:39;15.40;;;3.10;;
58250;SDS011;51449;51.676;5.812;2022-11-25T02:54:05;13.83;;;3.70;;
58250;SDS011;51449;51.676;5.812;2022-11-25T02:56:29;11.60;;;3.53;;
58250;SDS011;51449;51.676;5.812;2022-11-25T02:58:54;13.57;;;3.47;;
58250;SDS011;51449;51.676;5.812;2022-11-25T03:01:19;10.97;;;2.90;;
58250;SDS011;51449;51.676;5.812;2022-11-25T03:03:43;9.95;;;2.90;;
58250;SDS011;51449;51.676;5.812;2022-11-25T03:06:05;9.33;;;2.87;;
58250;SDS011;51449;51.676;5.812;2022-11-25T03:08:28;12.23;;;3.33;;
58250;SDS011;51449;51.676;5.812;2022-11-25T03:10:50;12.63;;;3.23;;
58250;SDS011;51449;51.676;5.812;2022-11-25T03:13:12;17.33;;;3.60;;
58250;SDS011;51449;51.676;5.812;2022-11-25T03:15:34;15.37;;;3.30;;
58250;SDS011;51449;51.676;5.812;2022-11-25T03:17:57;13.95;;;2.63;;
58250;SDS011;51449;51.676;5.812;2022-11-25T03:20:20;14.97;;;3.17;;
58250;SDS011;51449;51.676;5.812;2022-11-25T03:22:42;15.47;;;3.90;;
58250;SDS011;51449;51.676;5.812;2022-11-25T03:25:05;11.50;;;2.63;;
58250;SDS011;51449;51.676;5.812;2022-11-25T03:27:28;12.43;;;2.77;;
58250;SDS011;51449;51.676;5.812;2022-11-25T03:29:51;12.97;;;3.10;;
58250;SDS011;51449;51.676;5.812;2022-11-25T03:32:14;13.70;;;2.77;;
58250;SDS011;51449;51.676;5.812;2022-11-25T03:34:36;12.13;;;2.93;;
58250;SDS011;51449;51.676;5.812;2022-11-25T03:36:59;13.10;;;3.03;;
58250;SDS011;51449;51.676;5.812;2022-11-25T03:39:23;12.68;;;2.88;;
58250;SDS011;51449;51.676;5.812;2022-11-25T03:41:45;13.63;;;2.80;;
58250;SDS011;51449;51.676;5.812;2022-11-25T03:44:07;14.50;;;3.53;;
58250;SDS011;51449;51.676;5.812;2022-11-25T03:46:29;12.13;;;2.80;;
58250;SDS011;51449;51.676;5.812;2022-11-25T03:48:53;12.75;;;2.90;;
58250;SDS011;51449;51.676;5.812;2022-11-25T03:51:16;6.07;;;2.30;;
58250;SDS011;51449;51.676;5.812;2022-11-25T03:53:38;12.93;;;2.60;;
58250;SDS011;51449;51.676;5.812;2022-11-25T03:56:02;12.93;;;3.30;;
58250;SDS011;51449;51.676;5.812;2022-11-25T03:58:24;15.00;;;2.60;;
58250;SDS011;51449;51.676;5.812;2022-11-25T04:00:46;15.37;;;2.67;;
58250;SDS011;51449;51.676;5.812;2022-11-25T04:03:08;12.50;;;2.70;;
58250;SDS011;51449;51.676;5.812;2022-11-25T04:05:30;15.33;;;3.30;;
58250;SDS011;51449;51.676;5.812;2022-11-25T04:07:56;13.70;;;2.60;;
58250;SDS011;51449;51.676;5.812;2022-11-25T04:10:19;11.73;;;2.80;;
58250;SDS011;51449;51.676;5.812;2022-11-25T04:12:41;11.60;;;2.40;;
58250;SDS011;51449;51.676;5.812;2022-11-25T04:15:31;10.73;;;2.10;;
58250;SDS011;51449;51.676;5.812;2022-11-25T04:17:54;11.03;;;2.40;;
58250;SDS011;51449;51.676;5.812;2022-11-25T04:20:16;13.93;;;2.80;;
58250;SDS011;51449;51.676;5.812;2022-11-25T04:22:44;12.00;;;2.50;;
58250;SDS011;51449;51.676;5.812;2022-11-25T04:25:08;10.60;;;2.70;;
58250;SDS011;51449;51.676;5.812;2022-11-25T04:27:31;11.93;;;2.60;;
58250;SDS011;51449;51.676;5.812;2022-11-25T04:29:53;13.73;;;2.57;;
58250;SDS011;51449;51.676;5.812;2022-11-25T04:32:15;9.83;;;2.87;;
58250;SDS011;51449;51.676;5.812;2022-11-25T04:34:38;11.93;;;2.90;;
58250;SDS011;51449;51.676;5.812;2022-11-25T04:37:01;10.98;;;2.80;;
58250;SDS011;51449;51.676;5.812;2022-11-25T04:39:23;9.30;;;2.30;;
58250;SDS011;51449;51.676;5.812;2022-11-25T04:41:50;10.00;;;2.43;;
58250;SDS011;51449;51.676;5.812;2022-11-25T04:44:33;9.57;;;2.57;;
58250;SDS011;51449;51.676;5.812;2022-11-25T04:46:55;7.37;;;2.57;;
58250;SDS011;51449;51.676;5.812;2022-11-25T04:49:18;9.43;;;2.90;;
58250;SDS011;51449;51.676;5.812;2022-11-25T04:51:39;9.00;;;2.40;;
58250;SDS011;51449;51.676;5.812;2022-11-25T04:54:01;12.03;;;2.50;;
58250;SDS011;51449;51.676;5.812;2022-11-25T04:56:25;10.73;;;2.50;;
58250;SDS011;51449;51.676;5.812;2022-11-25T04:58:49;12.13;;;2.40;;
58250;SDS011;51449;51.676;5.812;2022-11-25T05:01:33;8.03;;;2.73;;
58250;SDS011;51449;51.676;5.812;2022-11-25T05:04:11;10.10;;;2.63;;
58250;SDS011;51449;51.676;5.812;2022-11-25T05:06:32;8.73;;;1.90;;
58250;SDS011;51449;51.676;5.812;2022-11-25T05:08:54;6.40;;;2.10;;
58250;SDS011;51449;51.676;5.812;2022-11-25T05:11:18;14.38;;;2.60;;
58250;SDS011;51449;51.676;5.812;2022-11-25T05:13:40;6.17;;;2.17;;
58250;SDS011;51449;51.676;5.812;2022-11-25T05:16:03;6.53;;;2.00;;
58250;SDS011;51449;51.676;5.812;2022-11-25T05:18:25;9.40;;;2.03;;
58250;SDS011;51449;51.676;5.812;2022-11-25T05:20:47;8.13;;;2.30;;
58250;SDS011;51449;51.676;5.812;2022-11-25T05:23:11;8.40;;;2.40;;
58250;SDS011;51449;51.676;5.812;2022-11-25T05:25:33;7.73;;;2.00;;
58250;SDS011;51449;51.676;5.812;2022-11-25T05:28:34;7.57;;;2.07;;
58250;SDS011;51449;51.676;5.812;2022-11-25T05:30:56;7.70;;;2.10;;
58250;SDS011;51449;51.676;5.812;2022-11-25T05:33:19;13.40;;;3.03;;
58250;SDS011;51449;51.676;5.812;2022-11-25T05:35:41;8.60;;;2.57;;
58250;SDS011;51449;51.676;5.812;2022-11-25T05:38:03;5.53;;;1.67;;
58250;SDS011;51449;51.676;5.812;2022-11-25T05:40:26;5.50;;;2.10;;
58250;SDS011;51449;51.676;5.812;2022-11-25T05:42:58;5.37;;;2.13;;
58250;SDS011;51449;51.676;5.812;2022-11-25T05:45:23;9.20;;;2.10;;
58250;SDS011;51449;51.676;5.812;2022-11-25T05:47:45;9.07;;;2.00;;
58250;SDS011;51449;51.676;5.812;2022-11-25T05:50:12;7.07;;;2.20;;
58250;SDS011;51449;51.676;5.812;2022-11-25T05:52:34;6.97;;;2.10;;
58250;SDS011;51449;51.676;5.812;2022-11-25T05:54:56;7.70;;;2.40;;
58250;SDS011;51449;51.676;5.812;2022-11-25T05:57:19;6.97;;;2.17;;
58250;SDS011;51449;51.676;5.812;2022-11-25T05:59:48;7.10;;;1.87;;
58250;SDS011;51449;51.676;5.812;2022-11-25T06:02:17;8.70;;;2.47;;
58250;SDS011;51449;51.676;5.812;2022-11-25T06:04:39;7.83;;;2.73;;
58250;SDS011;51449;51.676;5.812;2022-11-25T06:07:02;4.60;;;2.00;;
58250;SDS011;51449;51.676;5.812;2022-11-25T06:09:24;5.37;;;2.40;;
58250;SDS011;51449;51.676;5.812;2022-11-25T06:11:46;6.77;;;2.23;;
58250;SDS011;51449;51.676;5.812;2022-11-25T06:14:08;6.37;;;2.27;;
58250;SDS011;51449;51.676;5.812;2022-11-25T06:16:30;7.23;;;2.20;;
58250;SDS011;51449;51.676;5.812;2022-11-25T06:19:06;7.60;;;2.20;;
58250;SDS011;51449;51.676;5.812;2022-11-25T06:21:29;10.53;;;2.17;;
58250;SDS011;51449;51.676;5.812;2022-11-25T06:23:52;5.37;;;1.80;;
58250;SDS011;51449;51.676;5.812;2022-11-25T06:26:15;6.97;;;2.00;;
58250;SDS011;51449;51.676;5.812;2022-11-25T06:28:40;7.30;;;1.97;;
58250;SDS011;51449;51.676;5.812;2022-11-25T06:31:03;4.67;;;1.63;;
58250;SDS011;51449;51.676;5.812;2022-11-25T06:33:36;7.50;;;2.03;;
58250;SDS011;51449;51.676;5.812;2022-11-25T06:36:02;5.50;;;2.00;;
58250;SDS011;51449;51.676;5.812;2022-11-25T06:38:26;7.93;;;1.97;;
58250;SDS011;51449;51.676;5.812;2022-11-25T06:40:48;10.40;;;2.30;;
58250;SDS011;51449;51.676;5.812;2022-11-25T06:43:10;6.30;;;2.27;;
58250;SDS011;51449;51.676;5.812;2022-11-25T06:45:32;5.53;;;1.90;;
58250;SDS011;51449;51.676;5.812;2022-11-25T06:47:54;5.83;;;2.00;;
58250;SDS011;51449;51.676;5.812;2022-11-25T06:50:17;6.87;;;2.27;;
58250;SDS011;51449;51.676;5.812;2022-11-25T06:52:39;6.27;;;1.77;;
58250;SDS011;51449;51.676;5.812;2022-11-25T06:55:02;7.33;;;2.07;;
58250;SDS011;51449;51.676;5.812;2022-11-25T06:57:25;6.80;;;2.43;;
58250;SDS011;51449;51.676;5.812;2022-11-25T06:59:46;4.90;;;1.90;;
58250;SDS011;51449;51.676;5.812;2022-11-25T07:02:09;7.37;;;2.10;;
58250;SDS011;51449;51.676;5.812;2022-11-25T07:04:33;5.72;;;1.70;;
58250;SDS011;51449;51.676;5.812;2022-11-25T07:06:55;4.63;;;1.80;;
58250;SDS011;51449;51.676;5.812;2022-11-25T07:09:17;9.23;;;2.57;;
58250;SDS011;51449;51.676;5.812;2022-11-25T07:11:42;6.77;;;1.63;;
58250;SDS011;51449;51.676;5.812;2022-11-25T07:14:05;5.37;;;1.67;;
58250;SDS011;51449;51.676;5.812;2022-11-25T07:16:32;5.60;;;1.97;;
58250;SDS011;51449;51.676;5.812;2022-11-25T07:18:55;8.50;;;1.93;;
58250;SDS011;51449;51.676;5.812;2022-11-25T07:21:21;6.00;;;1.60;;
58250;SDS011;51449;51.676;5.812;2022-11-25T07:23:45;5.97;;;1.60;;
58250;SDS011;51449;51.676;5.812;2022-11-25T07:26:18;4.77;;;1.80;;
58250;SDS011;51449;51.676;5.812;2022-11-25T07:28:42;8.85;;;2.38;;
58250;SDS011;51449;51.676;5.812;2022-11-25T07:33:54;6.60;;;1.73;;
58250;SDS011;51449;51.676;5.812;2022-11-25T07:36:20;5.93;;;1.90;;
58250;SDS011;51449;51.676;5.812;2022-11-25T07:38:42;7.67;;;1.97;;
58250;SDS011;51449;51.676;5.812;2022-11-25T07:41:08;7.20;;;2.03;;
58250;SDS011;51449;51.676;5.812;2022-11-25T07:43:33;8.70;;;2.47;;
58250;SDS011;51449;51.676;5.812;2022-11-25T07:46:06;11.63;;;2.43;;
58250;SDS011;51449;51.676;5.812;2022-11-25T07:48:34;5.63;;;2.17;;
58250;SDS011;51449;51.676;5.812;2022-11-25T07:50:56;8.20;;;2.87;;
58250;SDS011;51449;51.676;5.812;2022-11-25T07:53:18;8.20;;;2.30;;
58250;SDS011;51449;51.676;5.812;2022-11-25T07:55:40;6.97;;;2.40;;
58250;SDS011;51449;51.676;5.812;2022-11-25T07:58:02;8.17;;;2.47;;
58250;SDS011;51449;51.676;5.812;2022-11-25T08:00:24;7.80;;;3.00;;
58250;SDS011;51449;51.676;5.812;2022-11-25T08:02:46;5.93;;;2.43;;
58250;SDS011;51449;51.676;5.812;2022-11-25T08:05:08;7.43;;;2.30;;
58250;SDS011;51449;51.676;5.812;2022-11-25T08:07:30;10.77;;;2.67;;
58250;SDS011;51449;51.676;5.812;2022-11-25T08:09:57;7.73;;;2.30;;
58250;SDS011;51449;51.676;5.812;2022-11-25T08:12:19;5.50;;;2.90;;
58250;SDS011;51449;51.676;5.812;2022-11-25T08:14:40;7.17;;;2.50;;
58250;SDS011;51449;51.676;5.812;2022-11-25T08:17:02;7.77;;;2.67;;
58250;SDS011;51449;51.676;5.812;2022-11-25T08:19:26;12.90;;;3.27;;
58250;SDS011;51449;51.676;5.812;2022-11-25T08:21:51;8.97;;;2.73;;
58250;SDS011;51449;51.676;5.812;2022-11-25T08:24:15;10.93;;;3.13;;
58250;SDS011;51449;51.676;5.812;2022-11-25T08:26:41;7.30;;;2.80;;
58250;SDS011;51449;51.676;5.812;2022-11-25T08:29:04;4.70;;;2.87;;
58250;SDS011;51449;51.676;5.812;2022-11-25T08:31:28;6.50;;;2.75;;
58250;SDS011;51449;51.676;5.812;2022-11-25T08:33:57;11.27;;;2.80;;
58250;SDS011;51449;51.676;5.812;2022-11-25T08:36:19;6.87;;;2.83;;
58250;SDS011;51449;51.676;5.812;2022-11-25T08:38:43;9.33;;;2.67;;
58250;SDS011;51449;51.676;5.812;2022-11-25T08:41:10;5.70;;;3.23;;
58250;SDS011;51449;51.676;5.812;2022-11-25T08:43:42;7.77;;;2.63;;
58250;SDS011;51449;51.676;5.812;2022-11-25T08:46:12;9.13;;;2.80;;
58250;SDS011;51449;51.676;5.812;2022-11-25T08:48:38;6.28;;;3.08;;
58250;SDS011;51449;51.676;5.812;2022-11-25T08:51:01;9.20;;;2.97;;
58250;SDS011;51449;51.676;5.812;2022-11-25T08:53:28;8.50;;;2.93;;
58250;SDS011;51449;51.676;5.812;2022-11-25T08:55:50;8.13;;;2.77;;
58250;SDS011;51449;51.676;5.812;2022-11-25T08:58:12;7.03;;;2.60;;
58250;SDS011;51449;51.676;5.812;2022-11-25T09:00:35;10.77;;;2.70;;
58250;SDS011;51449;51.676;5.812;2022-11-25T09:02:58;6.95;;;2.33;;
58250;SDS011;51449;51.676;5.812;2022-11-25T09:05:20;9.40;;;2.70;;
58250;SDS011;51449;51.676;5.812;2022-11-25T09:07:42;6.53;;;2.93;;
58250;SDS011;51449;51.676;5.812;2022-11-25T09:10:05;7.87;;;3.10;;
58250;SDS011;51449;51.676;5.812;2022-11-25T09:12:30;8.47;;;2.80;;
58250;SDS011;51449;51.676;5.812;2022-11-25T09:14:52;6.97;;;3.07;;
58250;SDS011;51449;51.676;5.812;2022-11-25T09:17:14;6.57;;;2.60;;
58250;SDS011;51449;51.676;5.812;2022-11-25T09:19:36;9.17;;;3.20;;
58250;SDS011;51449;51.676;5.812;2022-11-25T09:21:59;12.13;;;3.40;;
58250;SDS011;51449;51.676;5.812;2022-11-25T09:24:21;6.63;;;2.90;;
58250;SDS011;51449;51.676;5.812;2022-11-25T09:26:43;6.90;;;2.83;;
58250;SDS011;51449;51.676;5.812;2022-11-25T09:29:06;7.57;;;3.57;;
58250;SDS011;51449;51.676;5.812;2022-11-25T09:31:28;7.33;;;2.67;;
58250;SDS011;51449;51.676;5.812;2022-11-25T09:33:51;9.00;;;3.50;;
58250;SDS011;51449;51.676;5.812;2022-11-25T09:36:13;9.33;;;3.40;;
58250;SDS011;51449;51.676;5.812;2022-11-25T09:41:07;7.03;;;2.83;;
58250;SDS011;51449;51.676;5.812;2022-11-25T09:44:31;6.20;;;2.70;;
58250;SDS011;51449;51.676;5.812;2022-11-25T09:50:12;8.50;;;3.00;;
58250;SDS011;51449;51.676;5.812;2022-11-25T09:56:01;7.20;;;3.03;;
58250;SDS011;51449;51.676;5.812;2022-11-25T09:58:36;7.80;;;2.77;;
58250;SDS011;51449;51.676;5.812;2022-11-25T10:01:13;6.07;;;2.30;;
58250;SDS011;51449;51.676;5.812;2022-11-25T10:03:45;5.67;;;2.53;;
58250;SDS011;51449;51.676;5.812;2022-11-25T10:06:20;9.80;;;2.40;;
58250;SDS011;51449;51.676;5.812;2022-11-25T10:08:51;11.47;;;2.83;;
58250;SDS011;51449;51.676;5.812;2022-11-25T10:14:14;9.10;;;2.80;;
58250;SDS011;51449;51.676;5.812;2022-11-25T10:22:23;10.67;;;3.13;;
58250;SDS011;51449;51.676;5.812;2022-11-25T10:24:48;18.53;;;3.67;;
58250;SDS011;51449;51.676;5.812;2022-11-25T10:27:16;12.27;;;2.80;;
58250;SDS011;51449;51.676;5.812;2022-11-25T10:29:46;6.70;;;2.93;;
58250;SDS011;51449;51.676;5.812;2022-11-25T10:32:37;10.00;;;2.87;;
58250;SDS011;51449;51.676;5.812;2022-11-25T10:35:14;8.37;;;2.70;;
58250;SDS011;51449;51.676;5.812;2022-11-25T10:37:51;8.70;;;2.37;;
58250;SDS011;51449;51.676;5.812;2022-11-25T10:40:18;9.93;;;2.70;;
58250;SDS011;51449;51.676;5.812;2022-11-25T10:42:40;5.90;;;2.40;;
58250;SDS011;51449;51.676;5.812;2022-11-25T10:45:04;9.05;;;2.72;;
58250;SDS011;51449;51.676;5.812;2022-11-25T10:47:45;7.53;;;2.50;;
58250;SDS011;51449;51.676;5.812;2022-11-25T10:50:19;7.87;;;2.80;;
58250;SDS011;51449;51.676;5.812;2022-11-25T10:52:50;4.90;;;2.50;;
58250;SDS011;51449;51.676;5.812;2022-11-25T10:55:23;7.80;;;2.53;;
58250;SDS011;51449;51.676;5.812;2022-11-25T10:57:48;9.33;;;2.70;;
58250;SDS011;51449;51.676;5.812;2022-11-25T11:00:26;7.10;;;2.30;;
58250;SDS011;51449;51.676;5.812;2022-11-25T11:02:53;6.13;;;2.10;;
58250;SDS011;51449;51.676;5.812;2022-11-25T11:05:24;5.43;;;2.25;;
58250;SDS011;51449;51.676;5.812;2022-11-25T11:11:17;5.97;;;2.50;;
58250;SDS011;51449;51.676;5.812;2022-11-25T11:13:43;7.17;;;2.77;;
58250;SDS011;51449;51.676;5.812;2022-11-25T11:18:47;6.77;;;2.13;;
58250;SDS011;51449;51.676;5.812;2022-11-25T11:21:20;8.80;;;2.70;;
58250;SDS011;51449;51.676;5.812;2022-11-25T11:23:50;8.90;;;2.70;;
58250;SDS011;51449;51.676;5.812;2022-11-25T11:26:31;8.53;;;2.33;;
58250;SDS011;51449;51.676;5.812;2022-11-25T11:29:17;8.90;;;2.40;;
58250;SDS011;51449;51.676;5.812;2022-11-25T11:31:43;7.43;;;2.90;;
58250;SDS011;51449;51.676;5.812;2022-11-25T11:39:58;9.77;;;2.85;;
58250;SDS011;51449;51.676;5.812;2022-11-25T11:42:42;7.50;;;2.27;;
58250;SDS011;51449;51.676;5.812;2022-11-25T11:50:52;7.17;;;2.33;;
58250;SDS011;51449;51.676;5.812;2022-11-25T11:53:38;8.70;;;2.20;;
58250;SDS011;51449;51.676;5.812;2022-11-25T12:04:40;5.87;;;1.97;;
58250;SDS011;51449;51.676;5.812;2022-11-25T12:10:29;8.10;;;2.73;;
58250;SDS011;51449;51.676;5.812;2022-11-25T12:18:25;6.93;;;2.33;;
58250;SDS011;51449;51.676;5.812;2022-11-25T12:24:12;8.02;;;2.63;;
58250;SDS011;51449;51.676;5.812;2022-11-25T12:27:18;6.27;;;2.60;;
58250;SDS011;51449;51.676;5.812;2022-11-25T12:29:48;10.40;;;2.50;;
58250;SDS011;51449;51.676;5.812;2022-11-25T12:35:00;9.17;;;2.37;;
58250;SDS011;51449;51.676;5.812;2022-11-25T12:37:38;7.43;;;2.17;;
58250;SDS011;51449;51.676;5.812;2022-11-25T12:40:12;9.98;;;2.30;;
58250;SDS011;51449;51.676;5.812;2022-11-25T12:42:43;8.03;;;1.77;;
58250;SDS011;51449;51.676;5.812;2022-11-25T12:45:22;13.80;;;2.70;;
58250;SDS011;51449;51.676;5.812;2022-11-25T12:47:46;6.93;;;1.80;;
58250;SDS011;51449;51.676;5.812;2022-11-25T12:50:13;7.43;;;2.20;;
58250;SDS011;51449;51.676;5.812;2022-11-25T12:52:47;8.73;;;2.20;;
58250;SDS011;51449;51.676;5.812;2022-11-25T12:55:33;7.20;;;2.00;;
58250;SDS011;51449;51.676;5.812;2022-11-25T13:06:49;9.07;;;2.73;;
58250;SDS011;51449;51.676;5.812;2022-11-25T13:17:57;8.60;;;2.17;;
58250;SDS011;51449;51.676;5.812;2022-11-25T13:23:05;11.87;;;2.60;;
58250;SDS011;51449;51.676;5.812;2022-11-25T13:25:31;8.00;;;2.23;;
58250;SDS011;51449;51.676;5.812;2022-11-25T13:32:53;13.25;;;2.60;;
58250;SDS011;51449;51.676;5.812;2022-11-25T13:37:45;9.03;;;2.60;;
58250;SDS011;51449;51.676;5.812;2022-11-25T13:42:45;7.80;;;2.50;;
58250;SDS011;51449;51.676;5.812;2022-11-25T13:45:51;8.83;;;2.50;;
58250;SDS011;51449;51.676;5.812;2022-11-25T13:48:05;11.90;;;2.77;;
58250;SDS011;51449;51.676;5.812;2022-11-25T13:50:33;10.47;;;2.77;;
58250;SDS011;51449;51.676;5.812;2022-11-25T13:53:32;7.80;;;2.50;;
58250;SDS011;51449;51.676;5.812;2022-11-25T14:01:32;7.65;;;3.13;;
58250;SDS011;51449;51.676;5.812;2022-11-25T14:03:55;10.47;;;3.10;;
58250;SDS011;51449;51.676;5.812;2022-11-25T14:06:24;9.60;;;2.90;;
58250;SDS011;51449;51.676;5.812;2022-11-25T14:26:37;8.17;;;3.00;;
58250;SDS011;51449;51.676;5.812;2022-11-25T14:31:48;12.83;;;3.47;;
58250;SDS011;51449;51.676;5.812;2022-11-25T14:34:22;10.47;;;3.90;;
58250;SDS011;51449;51.676;5.812;2022-11-25T14:36:53;14.95;;;3.95;;
58250;SDS011;51449;51.676;5.812;2022-11-25T14:39:35;11.13;;;4.00;;
58250;SDS011;51449;51.676;5.812;2022-11-25T14:42:11;10.13;;;3.40;;
58250;SDS011;51449;51.676;5.812;2022-11-25T14:47:07;11.40;;;3.17;;
58250;SDS011;51449;51.676;5.812;2022-11-25T14:49:52;14.27;;;4.10;;
58250;SDS011;51449;51.676;5.812;2022-11-25T14:52:36;10.53;;;3.73;;
58250;SDS011;51449;51.676;5.812;2022-11-25T14:54:58;12.83;;;3.90;;
58250;SDS011;51449;51.676;5.812;2022-11-25T14:57:27;12.00;;;3.60;;
58250;SDS011;51449;51.676;5.812;2022-11-25T14:59:55;15.17;;;4.57;;
58250;SDS011;51449;51.676;5.812;2022-11-25T15:02:30;14.40;;;4.20;;
58250;SDS011;51449;51.676;5.812;2022-11-25T15:05:13;11.37;;;4.03;;
58250;SDS011;51449;51.676;5.812;2022-11-25T15:07:43;11.47;;;3.97;;
58250;SDS011;51449;51.676;5.812;2022-11-25T15:10:37;10.97;;;3.83;;
58250;SDS011;51449;51.676;5.812;2022-11-25T15:13:00;14.50;;;4.73;;
58250;SDS011;51449;51.676;5.812;2022-11-25T15:15:43;14.33;;;4.70;;
58250;SDS011;51449;51.676;5.812;2022-11-25T15:18:06;17.30;;;5.10;;
58250;SDS011;51449;51.676;5.812;2022-11-25T15:20:39;11.97;;;4.43;;
58250;SDS011;51449;51.676;5.812;2022-11-25T15:23:01;15.53;;;4.60;;
58250;SDS011;51449;51.676;5.812;2022-11-25T15:25:23;16.77;;;4.67;;
58250;SDS011;51449;51.676;5.812;2022-11-25T15:27:49;12.97;;;4.83;;
58250;SDS011;51449;51.676;5.812;2022-11-25T15:30:31;17.00;;;5.50;;
58250;SDS011;51449;51.676;5.812;2022-11-25T15:32:54;18.67;;;5.70;;
58250;SDS011;51449;51.676;5.812;2022-11-25T15:35:18;15.50;;;5.03;;
58250;SDS011;51449;51.676;5.812;2022-11-25T15:37:44;15.53;;;5.63;;
58250;SDS011;51449;51.676;5.812;2022-11-25T15:42:53;18.87;;;5.60;;
58250;SDS011;51449;51.676;5.812;2022-11-25T15:45:16;17.53;;;5.60;;
58250;SDS011;51449;51.676;5.812;2022-11-25T15:47:43;14.73;;;6.20;;
58250;SDS011;51449;51.676;5.812;2022-11-25T15:50:15;17.47;;;6.03;;
58250;SDS011;51449;51.676;5.812;2022-11-25T15:52:56;16.10;;;5.33;;
58250;SDS011;51449;51.676;5.812;2022-11-25T15:55:33;14.77;;;5.80;;
58250;SDS011;51449;51.676;5.812;2022-11-25T15:58:04;19.10;;;6.03;;
58250;SDS011;51449;51.676;5.812;2022-11-25T16:00:38;17.90;;;6.60;;
58250;SDS011;51449;51.676;5.812;2022-11-25T16:03:02;15.10;;;5.67;;
58250;SDS011;51449;51.676;5.812;2022-11-25T16:05:50;17.47;;;6.27;;
58250;SDS011;51449;51.676;5.812;2022-11-25T16:15:48;18.13;;;6.47;;
58250;SDS011;51449;51.676;5.812;2022-11-25T16:18:15;17.00;;;6.73;;
58250;SDS011;51449;51.676;5.812;2022-11-25T16:21:02;21.37;;;6.80;;
58250;SDS011;51449;51.676;5.812;2022-11-25T16:23:32;17.13;;;6.73;;
58250;SDS011;51449;51.676;5.812;2022-11-25T16:26:03;20.23;;;7.00;;
58250;SDS011;51449;51.676;5.812;2022-11-25T16:28:32;20.00;;;6.80;;
58250;SDS011;51449;51.676;5.812;2022-11-25T16:30:54;19.47;;;6.37;;
58250;SDS011;51449;51.676;5.812;2022-11-25T16:33:19;22.23;;;7.60;;
58250;SDS011;51449;51.676;5.812;2022-11-25T16:35:41;19.40;;;6.80;;
58250;SDS011;51449;51.676;5.812;2022-11-25T16:38:04;24.97;;;7.87;;
58250;SDS011;51449;51.676;5.812;2022-11-25T16:40:26;23.90;;;7.40;;
58250;SDS011;51449;51.676;5.812;2022-11-25T16:42:48;17.90;;;6.97;;
58250;SDS011;51449;51.676;5.812;2022-11-25T16:45:19;20.13;;;8.23;;
58250;SDS011;51449;51.676;5.812;2022-11-25T16:47:44;21.50;;;7.13;;
58250;SDS011;51449;51.676;5.812;2022-11-25T16:50:16;18.57;;;6.93;;
58250;SDS011;51449;51.676;5.812;2022-11-25T16:52:40;16.97;;;6.63;;
58250;SDS011;51449;51.676;5.812;2022-11-25T16:55:02;19.43;;;7.40;;
58250;SDS011;51449;51.676;5.812;2022-11-25T16:57:25;21.63;;;6.67;;